createdAt,value
2023-05-24T00:02:03.747Z,57.04
2023-05-24T00:04:31.657Z,57.11
2023-05-24T00:07:03.254Z,57.01
2023-05-24T00:09:32.230Z,56.91
2023-05-24T00:11:59.999Z,57.15
2023-05-24T00:14:27.777Z,56.92
2023-05-24T00:16:55.386Z,56.94
2023-05-24T00:19:23.149Z,56.89
2023-05-24T00:21:51.060Z,57.08
2023-05-24T00:24:18.741Z,57.05
2023-05-24T00:26:48.400Z,57.36
2023-05-24T00:29:16.003Z,57.07
2023-05-24T00:31:43.657Z,57.08
2023-05-24T00:34:11.474Z,57.00
2023-05-24T00:36:39.204Z,57.21
2023-05-24T00:39:06.872Z,57.09
2023-05-24T00:41:34.591Z,57.14
2023-05-24T00:44:03.685Z,57.08
2023-05-24T00:46:33.479Z,57.20
2023-05-24T00:49:02.416Z,57.21
2023-05-24T00:51:30.309Z,57.48
2023-05-24T00:53:57.973Z,57.53
2023-05-24T00:56:26.199Z,57.24
2023-05-24T00:58:56.032Z,57.50
2023-05-24T01:01:26.636Z,57.38
2023-05-24T01:03:54.754Z,57.34
2023-05-24T01:06:23.506Z,57.49
2023-05-24T01:09:09.289Z,57.22
2023-05-24T01:11:46.810Z,57.40
2023-05-24T01:14:21.066Z,57.70
2023-05-24T01:16:56.355Z,57.59
2023-05-24T01:19:49.758Z,57.60
2023-05-24T01:22:51.793Z,57.55
2023-05-24T01:25:31.642Z,57.49
2023-05-24T01:28:01.729Z,57.63
2023-05-24T01:30:29.653Z,57.68
2023-05-24T01:32:57.344Z,57.55
2023-05-24T01:35:24.920Z,57.54
2023-05-24T01:37:52.537Z,57.50
2023-05-24T01:40:20.370Z,57.67
2023-05-24T01:43:05.253Z,57.68
2023-05-24T01:45:40.577Z,57.82
2023-05-24T01:48:19.058Z,57.75
2023-05-24T01:50:52.754Z,57.72
2023-05-24T01:53:26.189Z,57.80
2023-05-24T01:55:57.662Z,57.96
2023-05-24T01:58:27.822Z,57.90
2023-05-24T02:00:57.129Z,57.80
2023-05-24T02:03:24.833Z,57.65
2023-05-24T02:05:52.556Z,57.79
2023-05-24T02:08:20.127Z,57.96
2023-05-24T02:10:47.897Z,57.78
2023-05-24T02:13:16.214Z,57.57
2023-05-24T02:15:44.781Z,57.72
2023-05-24T02:18:14.001Z,57.65
2023-05-24T02:20:41.972Z,57.76
2023-05-24T02:23:09.723Z,57.69
2023-05-24T02:25:37.343Z,57.71
2023-05-24T02:28:04.939Z,57.81
2023-05-24T02:30:32.541Z,57.74
2023-05-24T02:33:00.601Z,57.82
2023-05-24T02:35:29.660Z,57.77
2023-05-24T02:37:58.528Z,57.84
2023-05-24T02:40:26.258Z,57.74
2023-05-24T02:42:53.852Z,57.85
2023-05-24T02:45:21.452Z,57.70
2023-05-24T02:47:49.230Z,57.65
2023-05-24T02:50:17.580Z,57.67
2023-05-24T02:52:46.466Z,57.78
2023-05-24T02:55:14.041Z,57.69
2023-05-24T02:57:41.589Z,57.75
2023-05-24T03:00:11.565Z,57.92
2023-05-24T03:02:40.871Z,58.06
2023-05-24T03:05:09.518Z,57.78
2023-05-24T03:07:37.089Z,57.93
2023-05-24T03:10:07.187Z,57.68
2023-05-24T03:12:34.787Z,58.05
2023-05-24T03:15:02.397Z,57.93
2023-05-24T03:17:29.994Z,58.19
2023-05-24T03:19:57.657Z,57.93
2023-05-24T03:22:25.286Z,57.92
2023-05-24T03:24:52.879Z,57.96
2023-05-24T03:27:21.832Z,57.57
2023-05-24T03:29:49.490Z,57.79
2023-05-24T03:32:17.174Z,57.75
2023-05-24T03:34:44.738Z,58.02
2023-05-24T03:37:12.279Z,57.91
2023-05-24T03:39:39.833Z,58.01
2023-05-24T03:42:07.691Z,58.07
2023-05-24T03:44:36.688Z,58.10
2023-05-24T03:47:04.388Z,58.10
2023-05-24T03:49:32.959Z,58.08
2023-05-24T03:52:00.712Z,57.99
2023-05-24T03:54:28.294Z,58.17
2023-05-24T03:56:55.931Z,58.23
2023-05-24T03:59:23.510Z,58.16
2023-05-24T04:01:52.492Z,58.12
2023-05-24T04:04:20.183Z,58.22
2023-05-24T04:06:47.923Z,58.19
2023-05-24T04:09:15.591Z,57.99
2023-05-24T04:11:43.154Z,58.15
2023-05-24T04:14:10.730Z,58.09
2023-05-24T04:16:39.648Z,58.02
2023-05-24T04:19:08.922Z,58.24
2023-05-24T04:21:37.251Z,58.16
2023-05-24T04:24:05.094Z,58.22
2023-05-24T04:26:34.240Z,58.11
2023-05-24T04:29:01.944Z,58.21
2023-05-24T04:31:30.321Z,58.26
2023-05-24T04:33:59.359Z,58.31
2023-05-24T04:36:28.848Z,58.24
2023-05-24T04:39:02.631Z,58.15
2023-05-24T04:41:31.906Z,58.18
2023-05-24T04:44:00.642Z,58.14
2023-05-24T04:46:28.842Z,58.22
2023-05-24T04:48:56.503Z,58.10
2023-05-24T04:51:25.496Z,58.21
2023-05-24T04:53:54.498Z,58.14
2023-05-24T04:56:22.856Z,58.32
2023-05-24T04:58:50.468Z,58.30
2023-05-24T05:01:18.236Z,58.08
2023-05-24T05:03:46.227Z,58.27
2023-05-24T05:06:14.046Z,58.46
2023-05-24T05:08:41.634Z,58.03
2023-05-24T05:11:10.603Z,58.08
2023-05-24T05:13:38.202Z,58.21
2023-05-24T05:16:06.189Z,58.25
2023-05-24T05:18:33.812Z,58.19
2023-05-24T05:21:01.366Z,58.10
2023-05-24T05:23:28.927Z,58.10
2023-05-24T05:25:56.528Z,58.21
2023-05-24T05:28:25.511Z,58.16
2023-05-24T05:30:53.393Z,58.26
2023-05-24T05:33:21.049Z,58.15
2023-05-24T05:35:48.817Z,57.96
2023-05-24T05:38:16.460Z,57.88
2023-05-24T05:40:44.284Z,57.89
2023-05-24T05:43:11.896Z,58.13
2023-05-24T05:45:40.882Z,58.10
2023-05-24T05:48:08.512Z,58.12
2023-05-24T05:50:36.134Z,58.09
2023-05-24T05:53:03.690Z,57.87
2023-05-24T05:55:32.314Z,58.03
2023-05-24T05:57:59.903Z,57.94
2023-05-24T06:00:27.459Z,57.83
2023-05-24T06:02:56.758Z,58.05
2023-05-24T06:05:24.471Z,57.96
2023-05-24T06:07:52.061Z,57.57
2023-05-24T06:10:19.675Z,57.82
2023-05-24T06:12:47.228Z,57.90
2023-05-24T06:15:15.589Z,57.82
2023-05-24T06:17:43.919Z,57.78
2023-05-24T06:20:15.754Z,57.69
2023-05-24T06:22:43.758Z,57.88
2023-05-24T06:25:15.422Z,57.86
2023-05-24T06:27:43.011Z,57.84
2023-05-24T06:30:11.257Z,57.81
2023-05-24T06:32:38.911Z,57.83
2023-05-24T06:35:07.953Z,57.89
2023-05-24T06:37:38.486Z,58.00
2023-05-24T06:40:08.865Z,57.77
2023-05-24T06:42:37.152Z,57.80
2023-05-24T06:45:05.137Z,57.89
2023-05-24T06:47:32.912Z,57.64
2023-05-24T06:50:00.881Z,57.64
2023-05-24T06:52:28.470Z,57.83
2023-05-24T06:54:57.451Z,57.71
2023-05-24T06:57:25.392Z,57.56
2023-05-24T06:59:52.974Z,57.93
2023-05-24T07:02:24.054Z,57.72
2023-05-24T07:04:51.796Z,57.65
2023-05-24T07:07:19.845Z,57.63
2023-05-24T07:09:47.785Z,57.55
2023-05-24T07:12:16.900Z,57.68
2023-05-24T07:14:44.477Z,57.72
2023-05-24T07:17:12.082Z,57.68
2023-05-24T07:19:39.681Z,57.59
2023-05-24T07:22:07.322Z,57.33
2023-05-24T07:24:34.930Z,57.77
2023-05-24T07:27:02.496Z,57.64
2023-05-24T07:29:31.412Z,57.57
2023-05-24T07:31:59.033Z,57.29
2023-05-24T07:34:30.000Z,57.69
2023-05-24T07:36:58.735Z,57.47
2023-05-24T07:39:27.182Z,57.15
2023-05-24T07:41:54.876Z,57.70
2023-05-24T07:44:23.764Z,57.29
2023-05-24T07:46:52.737Z,57.30
2023-05-24T07:49:20.444Z,57.50
2023-05-24T07:51:48.538Z,57.41
2023-05-24T07:54:16.813Z,57.31
2023-05-24T07:56:44.506Z,57.36
2023-05-24T07:59:12.115Z,57.23
2023-05-24T08:01:39.679Z,57.35
2023-05-24T08:04:09.853Z,57.32
2023-05-24T08:06:37.578Z,57.26
2023-05-24T08:09:05.585Z,57.26
2023-05-24T08:11:33.202Z,57.26
2023-05-24T08:14:00.762Z,57.10
2023-05-24T08:16:28.510Z,57.30
2023-05-24T08:18:56.122Z,57.09
2023-05-24T08:21:25.058Z,57.14
2023-05-24T08:23:52.670Z,56.67
2023-05-24T08:26:20.976Z,57.17
2023-05-24T08:28:48.830Z,57.16
2023-05-24T08:31:16.964Z,57.25
2023-05-24T08:33:45.082Z,57.07
2023-05-24T08:36:12.656Z,57.12
2023-05-24T08:38:41.715Z,57.30
2023-05-24T08:41:12.133Z,57.25
2023-05-24T08:43:40.322Z,57.38
2023-05-24T08:46:08.625Z,57.20
2023-05-24T08:48:48.812Z,57.48
2023-05-24T08:51:16.961Z,57.39
2023-05-24T08:53:48.732Z,57.45
2023-05-24T08:56:18.217Z,57.39
2023-05-24T08:58:47.155Z,57.48
2023-05-24T09:01:15.609Z,57.36
2023-05-24T09:03:45.312Z,57.18
2023-05-24T09:06:14.320Z,57.36
2023-05-24T09:08:44.175Z,57.47
2023-05-24T09:11:16.040Z,57.58
2023-05-24T09:13:45.138Z,57.65
2023-05-24T09:16:13.039Z,57.36
2023-05-24T09:18:41.177Z,57.54
2023-05-24T09:21:08.848Z,57.50
2023-05-24T09:23:37.588Z,57.12
2023-05-24T09:26:09.350Z,57.33
2023-05-24T09:28:38.432Z,57.35
2023-05-24T09:31:08.254Z,57.45
2023-05-24T09:33:36.764Z,57.36
2023-05-24T09:36:06.539Z,57.48
2023-05-24T09:38:35.985Z,57.38
2023-05-24T09:41:05.367Z,57.52
2023-05-24T09:43:34.509Z,57.43
2023-05-24T09:46:05.606Z,57.51
2023-05-24T09:48:33.508Z,57.28
2023-05-24T09:51:05.973Z,57.33
2023-05-24T09:53:34.868Z,57.51
2023-05-24T09:56:05.075Z,57.30
2023-05-24T09:58:33.887Z,57.36
2023-05-24T10:01:08.527Z,57.49
2023-05-24T10:03:37.451Z,57.26
2023-05-24T10:06:07.468Z,57.08
2023-05-24T10:08:36.398Z,57.36
2023-05-24T10:11:05.038Z,57.29
2023-05-24T10:13:33.563Z,57.25
2023-05-24T10:16:01.123Z,57.15
2023-05-24T10:18:30.428Z,57.19
2023-05-24T10:20:58.958Z,57.13
2023-05-24T10:23:30.897Z,56.86
2023-05-24T10:26:06.349Z,56.76
2023-05-24T10:28:36.563Z,56.67
2023-05-24T10:31:11.136Z,56.36
2023-05-24T10:33:45.117Z,56.23
2023-05-24T10:36:15.940Z,55.89
2023-05-24T10:38:44.208Z,55.59
2023-05-24T10:41:13.028Z,55.14
2023-05-24T10:43:41.379Z,54.82
2023-05-24T10:46:10.512Z,54.87
2023-05-24T10:48:40.871Z,55.04
2023-05-24T10:51:38.497Z,54.84
2023-05-24T10:54:15.807Z,55.05
2023-05-24T10:56:46.841Z,55.31
2023-05-24T10:59:25.332Z,55.30
2023-05-24T11:01:57.850Z,55.26
2023-05-24T11:04:27.245Z,55.32
2023-05-24T11:07:01.633Z,55.30
2023-05-24T11:09:29.761Z,55.15
2023-05-24T11:12:03.927Z,55.23
2023-05-24T11:14:33.013Z,55.11
2023-05-24T11:17:01.487Z,55.18
2023-05-24T11:19:34.999Z,55.58
2023-05-24T11:22:04.071Z,55.57
2023-05-24T11:24:31.925Z,55.37
2023-05-24T11:27:02.251Z,55.35
2023-05-24T11:29:30.926Z,54.71
2023-05-24T11:32:04.139Z,54.64
2023-05-24T11:34:33.728Z,54.85
2023-05-24T11:37:02.520Z,54.94
2023-05-24T11:39:30.786Z,55.10
2023-05-24T11:41:58.393Z,55.29
2023-05-24T11:44:26.889Z,55.53
2023-05-24T11:46:58.812Z,55.24
2023-05-24T11:49:26.677Z,55.53
2023-05-24T11:51:57.429Z,55.38
2023-05-24T11:54:25.589Z,55.04
2023-05-24T11:56:53.964Z,54.85
2023-05-24T11:59:25.141Z,55.07
2023-05-24T12:01:58.958Z,53.89
2023-05-24T12:04:27.900Z,55.14
2023-05-24T12:06:57.787Z,55.14
2023-05-24T12:09:31.950Z,55.21
2023-05-24T12:11:59.608Z,54.39
2023-05-24T12:14:36.364Z,54.80
2023-05-24T12:17:17.702Z,53.75
2023-05-24T12:19:45.360Z,55.20
2023-05-24T12:22:14.294Z,55.13
2023-05-24T12:24:42.260Z,54.72
2023-05-24T12:27:10.281Z,55.33
2023-05-24T12:29:40.109Z,55.33
2023-05-24T12:32:13.665Z,54.91
2023-05-24T12:34:43.007Z,54.95
2023-05-24T12:37:12.089Z,54.90
2023-05-24T12:39:42.811Z,54.99
2023-05-24T12:42:12.562Z,55.17
2023-05-24T12:44:40.710Z,55.17
2023-05-24T12:47:10.280Z,55.01
2023-05-24T12:49:37.993Z,55.16
2023-05-24T12:52:06.614Z,54.90
2023-05-24T12:54:34.630Z,54.52
2023-05-24T12:57:03.797Z,54.30
2023-05-24T12:59:31.865Z,53.52
2023-05-24T13:01:59.506Z,52.75
2023-05-24T13:04:27.686Z,52.87
2023-05-24T13:06:55.706Z,52.53
2023-05-24T13:09:24.094Z,52.36
2023-05-24T13:11:52.111Z,52.45
2023-05-24T13:14:21.277Z,52.41
2023-05-24T13:16:49.512Z,52.57
2023-05-24T13:19:18.041Z,53.20
2023-05-24T13:21:45.762Z,53.42
2023-05-24T13:24:16.581Z,53.50
2023-05-24T13:26:44.361Z,53.64
2023-05-24T13:31:44.302Z,53.20
2023-05-24T13:34:12.111Z,52.96
2023-05-24T13:36:39.888Z,53.38
2023-05-24T13:41:40.665Z,53.43
2023-05-24T13:44:08.562Z,53.40
2023-05-24T13:46:36.535Z,53.49
2023-05-24T13:49:06.141Z,53.54
2023-05-24T13:51:34.265Z,53.40
2023-05-24T13:54:02.222Z,53.51
2023-05-24T13:56:32.835Z,53.62
2023-05-24T13:59:01.268Z,53.73
2023-05-24T14:01:28.936Z,53.60
2023-05-24T14:03:56.548Z,53.33
2023-05-24T14:06:25.418Z,53.30
2023-05-24T14:08:53.037Z,53.20
2023-05-24T14:11:22.235Z,53.17
2023-05-24T14:16:21.127Z,53.31
2023-05-24T14:18:50.200Z,53.39
2023-05-24T14:21:19.010Z,53.36
2023-05-24T14:23:48.111Z,53.44
2023-05-24T14:26:17.278Z,53.33
2023-05-24T14:28:44.849Z,53.51
2023-05-24T14:31:12.535Z,53.78
2023-05-24T14:33:40.243Z,53.88
2023-05-24T14:36:08.501Z,53.73
2023-05-24T14:38:36.096Z,53.71
2023-05-24T14:41:05.029Z,53.90
2023-05-24T14:43:32.614Z,53.69
2023-05-24T14:46:00.223Z,53.84
2023-05-24T14:48:27.797Z,53.85
2023-05-24T14:50:55.423Z,53.97
2023-05-24T14:53:22.988Z,53.76
2023-05-24T14:55:50.662Z,53.81
2023-05-24T14:58:20.161Z,53.71
2023-05-24T15:00:47.937Z,53.86
2023-05-24T15:03:15.800Z,53.54
2023-05-24T15:05:43.841Z,53.68
2023-05-24T15:08:11.932Z,53.11
2023-05-24T15:10:40.065Z,53.13
2023-05-24T15:13:08.122Z,53.44
2023-05-24T15:15:37.039Z,53.42
2023-05-24T15:18:05.050Z,53.97
2023-05-24T15:20:35.694Z,54.07
2023-05-24T15:23:03.835Z,54.34
2023-05-24T15:25:31.422Z,54.44
2023-05-24T15:27:59.012Z,54.60
2023-05-24T15:30:26.639Z,54.66
2023-05-24T15:32:55.781Z,54.82
2023-05-24T15:35:31.465Z,54.70
2023-05-24T15:37:59.400Z,54.40
2023-05-24T15:40:27.091Z,54.32
2023-05-24T15:42:54.786Z,54.48
2023-05-24T15:45:22.411Z,54.24
2023-05-24T15:47:50.168Z,54.25
2023-05-24T15:50:25.818Z,54.27
2023-05-24T15:52:59.860Z,54.52
2023-05-24T15:55:27.655Z,54.55
2023-05-24T15:57:55.268Z,54.19
2023-05-24T16:00:22.936Z,54.58
2023-05-24T16:02:50.692Z,54.12
2023-05-24T16:05:21.135Z,53.94
2023-05-24T16:07:48.871Z,53.94
2023-05-24T16:10:16.788Z,54.03
2023-05-24T16:12:44.323Z,54.52
2023-05-24T16:15:12.604Z,54.47
2023-05-24T16:17:40.243Z,54.64
2023-05-24T16:20:08.805Z,54.74
2023-05-24T16:22:39.591Z,54.73
2023-05-24T16:25:07.713Z,55.00
2023-05-24T16:27:35.319Z,55.42
2023-05-24T16:30:03.349Z,55.00
2023-05-24T16:32:30.907Z,55.19
2023-05-24T16:34:58.510Z,55.08
2023-05-24T16:37:26.153Z,54.96
2023-05-24T16:39:55.072Z,54.87
2023-05-24T16:42:22.636Z,54.60
2023-05-24T16:44:50.232Z,54.90
2023-05-24T16:47:17.827Z,55.04
2023-05-24T16:49:45.411Z,55.20
2023-05-24T16:52:12.970Z,54.90
2023-05-24T16:54:40.608Z,54.80
2023-05-24T16:57:09.590Z,54.55
2023-05-24T16:59:38.736Z,54.53
2023-05-24T17:02:06.772Z,54.16
2023-05-24T17:04:34.403Z,54.81
2023-05-24T17:07:01.992Z,55.15
2023-05-24T17:09:29.949Z,55.11
2023-05-24T17:11:57.590Z,55.10
2023-05-24T17:14:37.261Z,54.78
2023-05-24T17:17:07.071Z,54.92
2023-05-24T17:19:36.516Z,54.29
2023-05-24T17:22:05.538Z,54.72
2023-05-24T17:24:33.569Z,54.48
2023-05-24T17:27:01.873Z,54.81
2023-05-24T17:29:30.841Z,54.66
2023-05-24T17:31:58.485Z,54.64
2023-05-24T17:34:26.083Z,54.59
2023-05-24T17:36:53.646Z,54.78
2023-05-24T17:39:21.892Z,54.58
2023-05-24T17:41:49.446Z,54.98
2023-05-24T17:44:17.905Z,54.17
2023-05-24T17:46:46.891Z,54.81
2023-05-24T17:49:14.778Z,54.89
2023-05-24T17:51:42.349Z,54.76
2023-05-24T17:54:09.906Z,54.04
2023-05-24T17:56:37.542Z,55.60
2023-05-24T17:59:05.129Z,53.53
2023-05-24T18:01:32.992Z,55.58
2023-05-24T18:04:02.053Z,54.52
2023-05-24T18:06:29.707Z,54.52
2023-05-24T18:08:57.927Z,53.98
2023-05-24T18:11:25.510Z,54.77
2023-05-24T18:13:53.125Z,55.06
2023-05-24T18:16:20.863Z,54.20
2023-05-24T18:18:48.454Z,54.69
2023-05-24T18:21:17.430Z,54.79
2023-05-24T18:23:44.957Z,54.80
2023-05-24T18:26:12.996Z,54.66
2023-05-24T18:28:42.021Z,54.93
2023-05-24T18:31:11.192Z,54.70
2023-05-24T18:33:39.074Z,54.64
2023-05-24T18:36:07.476Z,54.74
2023-05-24T18:38:37.183Z,54.61
2023-05-24T18:41:06.532Z,55.20
2023-05-24T18:43:34.364Z,56.18
2023-05-24T18:46:02.291Z,55.39
2023-05-24T18:48:29.912Z,56.19
2023-05-24T18:50:57.612Z,54.78
2023-05-24T18:53:25.766Z,55.00
2023-05-24T18:55:54.710Z,55.60
2023-05-24T18:58:22.510Z,55.79
2023-05-24T19:00:50.731Z,55.83
2023-05-24T19:03:18.428Z,55.90
2023-05-24T19:05:46.415Z,56.25
2023-05-24T19:08:14.181Z,55.87
2023-05-24T19:10:41.920Z,56.32
2023-05-24T19:13:11.109Z,56.36
2023-05-24T19:15:38.744Z,56.58
2023-05-24T19:18:07.040Z,56.44
2023-05-24T19:20:34.848Z,56.46
2023-05-24T19:23:02.576Z,57.21
2023-05-24T19:25:31.107Z,56.74
2023-05-24T19:28:00.427Z,56.85
2023-05-24T19:30:29.973Z,57.23
2023-05-24T19:32:57.915Z,57.18
2023-05-24T19:35:25.540Z,57.08
2023-05-24T19:37:53.470Z,57.53
2023-05-24T19:40:21.322Z,57.23
2023-05-24T19:42:49.010Z,57.08
2023-05-24T19:45:16.904Z,57.47
2023-05-24T19:47:46.286Z,57.30
2023-05-24T19:50:13.969Z,57.24
2023-05-24T19:52:41.558Z,57.45
2023-05-24T19:55:10.465Z,57.38
2023-05-24T19:57:38.051Z,57.40
2023-05-24T20:00:06.813Z,57.30
2023-05-24T20:02:36.499Z,57.25
2023-05-24T20:05:06.826Z,57.32
2023-05-24T20:07:34.406Z,57.39
2023-05-24T20:10:04.880Z,57.47
2023-05-24T20:12:34.308Z,57.34
2023-05-24T20:15:02.034Z,57.61
2023-05-24T20:17:29.636Z,57.38
2023-05-24T20:19:57.252Z,57.43
2023-05-24T20:22:26.226Z,57.68
2023-05-24T20:24:53.827Z,57.31
2023-05-24T20:27:21.489Z,57.65
2023-05-24T20:29:49.188Z,57.56
2023-05-24T20:32:16.965Z,57.64
2023-05-24T20:34:44.605Z,57.74
2023-05-24T20:37:12.214Z,57.56
2023-05-24T20:39:41.157Z,57.50
2023-05-24T20:42:08.892Z,57.56
2023-05-24T20:44:36.474Z,57.65
2023-05-24T20:47:04.151Z,57.77
2023-05-24T20:49:31.711Z,57.74
2023-05-24T20:51:59.301Z,57.55
2023-05-24T20:54:26.912Z,57.71
2023-05-24T20:56:55.875Z,57.52
2023-05-24T20:59:23.441Z,57.72
2023-05-24T21:01:51.137Z,57.77
2023-05-24T21:04:19.436Z,57.74
2023-05-24T21:06:47.032Z,57.76
2023-05-24T21:09:14.628Z,57.83
2023-05-24T21:11:44.097Z,57.87
2023-05-24T21:14:13.094Z,57.89
2023-05-24T21:16:40.704Z,57.65
2023-05-24T21:19:08.290Z,57.65
2023-05-24T21:21:35.964Z,57.85
2023-05-24T21:24:03.580Z,58.02
2023-05-24T21:26:31.132Z,57.96
2023-05-24T21:28:58.889Z,57.87
2023-05-24T21:31:29.854Z,58.05
2023-05-24T21:33:57.647Z,58.20
2023-05-24T21:36:25.337Z,58.21
2023-05-24T21:38:52.878Z,58.05
2023-05-24T21:41:20.955Z,58.12
2023-05-24T21:43:48.539Z,58.12
2023-05-24T21:46:16.330Z,58.20
2023-05-24T21:48:45.645Z,58.00
2023-05-24T21:51:15.401Z,58.00
2023-05-24T21:53:43.040Z,58.32
2023-05-24T21:56:10.721Z,58.22
2023-05-24T21:58:38.591Z,58.09
2023-05-24T22:01:08.185Z,57.62
2023-05-24T22:03:36.297Z,58.09
2023-05-24T22:06:05.530Z,57.97
2023-05-24T22:08:33.106Z,58.38
2023-05-24T22:11:00.828Z,58.30
2023-05-24T22:13:28.395Z,58.59
2023-05-24T22:15:56.003Z,58.20
2023-05-24T22:18:27.432Z,58.50
2023-05-24T22:20:58.121Z,58.68
2023-05-24T22:23:27.262Z,58.53
2023-05-24T22:25:55.209Z,58.50
2023-05-24T22:28:24.752Z,58.58
2023-05-24T22:30:52.882Z,58.29
2023-05-24T22:33:20.685Z,58.40
2023-05-24T22:35:48.286Z,58.57
2023-05-24T22:38:15.865Z,58.62
2023-05-24T22:40:46.572Z,58.47
2023-05-24T22:43:14.197Z,58.55
2023-05-24T22:45:41.932Z,58.60
2023-05-24T22:48:10.342Z,58.39
2023-05-24T22:50:38.255Z,58.28
2023-05-24T22:53:05.910Z,58.54
2023-05-24T22:55:33.521Z,58.64
2023-05-24T22:58:02.767Z,58.41
2023-05-24T23:00:31.109Z,58.42
2023-05-24T23:02:58.743Z,58.52
2023-05-24T23:05:26.423Z,58.13
2023-05-24T23:07:54.934Z,58.24
2023-05-24T23:10:22.745Z,58.51
2023-05-24T23:12:50.401Z,58.34
2023-05-24T23:15:19.412Z,58.23
2023-05-24T23:17:48.059Z,58.75
2023-05-24T23:20:15.787Z,58.77
2023-05-24T23:22:43.484Z,58.28
2023-05-24T23:25:11.629Z,57.84
2023-05-24T23:27:40.546Z,58.18
2023-05-24T23:30:09.006Z,57.11
2023-05-24T23:32:37.940Z,58.20
2023-05-24T23:35:06.203Z,58.38
2023-05-24T23:37:33.839Z,58.55
2023-05-24T23:40:06.201Z,58.16
2023-05-24T23:42:33.792Z,58.46
2023-05-24T23:45:01.379Z,58.62
2023-05-24T23:47:28.977Z,58.36
2023-05-24T23:49:57.910Z,58.46
2023-05-24T23:52:25.784Z,58.73
2023-05-24T23:54:53.415Z,58.72
2023-05-24T23:57:21.056Z,58.65
2023-05-24T23:59:48.652Z,58.88
